createdAt,value
2018-08-23T00:01:28.276Z,7.92
2018-08-23T00:04:06.310Z,7.77
2018-08-23T00:06:35.984Z,8.10
2018-08-23T00:09:07.535Z,8.20
2018-08-23T00:11:41.405Z,7.40
2018-08-23T00:14:10.580Z,7.63
2018-08-23T00:16:42.587Z,7.15
2018-08-23T00:19:12.276Z,6.28
2018-08-23T00:21:45.040Z,6.55
2018-08-23T00:24:20.599Z,7.17
2018-08-23T00:26:55.902Z,6.87
2018-08-23T00:29:32.815Z,7.60
2018-08-23T00:32:07.338Z,7.07
2018-08-23T00:34:38.335Z,7.13
2018-08-23T00:37:08.045Z,6.92
2018-08-23T00:39:37.270Z,7.50
2018-08-23T00:42:09.889Z,7.10
2018-08-23T00:44:55.134Z,7.60
2018-08-23T00:47:27.528Z,7.00
2018-08-23T00:49:56.678Z,6.77
2018-08-23T00:52:40.777Z,7.33
2018-08-23T00:55:30.325Z,6.90
2018-08-23T00:57:59.682Z,7.40
2018-08-23T01:00:28.989Z,7.07
2018-08-23T01:02:58.887Z,7.40
2018-08-23T01:05:33.359Z,8.20
2018-08-23T01:08:02.878Z,8.33
2018-08-23T01:10:32.077Z,8.30
2018-08-23T01:13:02.297Z,8.30
2018-08-23T01:15:32.539Z,7.90
2018-08-23T01:18:13.321Z,8.00
2018-08-23T01:20:43.694Z,7.77
2018-08-23T01:23:12.906Z,8.10
2018-08-23T01:25:43.543Z,7.93
2018-08-23T01:28:12.733Z,7.97
2018-08-23T01:30:42.388Z,7.73
2018-08-23T01:33:14.584Z,8.13
2018-08-23T01:35:45.062Z,8.13
2018-08-23T01:38:14.953Z,7.90
2018-08-23T01:40:44.226Z,7.70
2018-08-23T01:43:13.463Z,8.13
2018-08-23T01:45:42.680Z,7.00
2018-08-23T01:48:11.994Z,7.53
2018-08-23T01:50:41.287Z,8.03
2018-08-23T01:53:10.577Z,7.70
2018-08-23T01:55:39.765Z,7.77
2018-08-23T01:58:08.954Z,6.97
2018-08-23T02:00:38.205Z,7.73
2018-08-23T02:03:07.378Z,6.70
2018-08-23T02:05:38.659Z,7.73
2018-08-23T02:08:07.858Z,7.30
2018-08-23T02:10:37.086Z,7.20
2018-08-23T02:13:15.096Z,6.87
2018-08-23T02:15:50.247Z,7.50
2018-08-23T02:18:19.498Z,6.70
2018-08-23T02:20:50.433Z,7.60
2018-08-23T02:23:19.607Z,7.40
2018-08-23T02:25:48.786Z,7.63
2018-08-23T02:28:17.958Z,7.40
2018-08-23T02:30:50.822Z,7.00
2018-08-23T02:33:20.625Z,7.47
2018-08-23T02:36:02.488Z,7.50
2018-08-23T02:38:31.729Z,7.70
2018-08-23T02:41:01.783Z,8.17
2018-08-23T02:43:30.994Z,7.93
2018-08-23T02:46:02.768Z,7.27
2018-08-23T02:48:32.013Z,7.43
2018-08-23T02:51:01.196Z,8.00
2018-08-23T02:53:35.958Z,7.93
2018-08-23T02:56:08.238Z,7.80
2018-08-23T02:58:52.074Z,7.70
2018-08-23T03:01:21.250Z,7.83
2018-08-23T03:04:02.425Z,7.60
2018-08-23T03:06:36.961Z,7.60
2018-08-23T03:09:08.551Z,7.60
2018-08-23T03:11:38.316Z,7.90
2018-08-23T03:14:07.591Z,7.40
2018-08-23T03:16:48.761Z,8.13
2018-08-23T03:19:17.882Z,8.07
2018-08-23T03:21:48.616Z,7.50
2018-08-23T03:24:20.374Z,7.87
2018-08-23T03:26:50.023Z,7.97
2018-08-23T03:29:19.145Z,7.67
2018-08-23T03:31:48.367Z,7.47
2018-08-23T03:34:17.529Z,8.07
2018-08-23T03:36:46.696Z,8.53
2018-08-23T03:39:15.833Z,8.30
2018-08-23T03:41:45.024Z,8.73
2018-08-23T03:44:25.146Z,8.43
2018-08-23T03:46:55.455Z,8.07
2018-08-23T03:49:47.850Z,8.07
2018-08-23T03:52:20.308Z,7.93
2018-08-23T03:54:55.101Z,7.83
2018-08-23T03:57:28.528Z,8.30
2018-08-23T03:59:57.690Z,7.57
2018-08-23T04:02:27.013Z,8.17
2018-08-23T04:05:07.722Z,7.50
2018-08-23T04:07:39.018Z,7.60
2018-08-23T04:10:08.312Z,7.40
2018-08-23T04:12:42.944Z,7.80
2018-08-23T04:15:24.749Z,8.20
2018-08-23T04:17:53.871Z,8.30
2018-08-23T04:20:23.041Z,8.00
2018-08-23T04:22:52.334Z,7.67
2018-08-23T04:25:21.497Z,7.60
2018-08-23T04:27:50.632Z,7.67
2018-08-23T04:30:19.894Z,7.20
2018-08-23T04:32:49.625Z,8.27
2018-08-23T04:35:27.469Z,7.90
2018-08-23T04:37:57.037Z,7.60
2018-08-23T04:40:26.222Z,7.20
2018-08-23T04:42:55.460Z,8.20
2018-08-23T04:45:26.021Z,7.67
2018-08-23T04:48:00.572Z,8.50
2018-08-23T04:50:29.779Z,8.53
2018-08-23T04:52:59.023Z,7.07
2018-08-23T04:55:28.306Z,8.20
2018-08-23T04:57:58.184Z,7.87
2018-08-23T05:00:28.127Z,8.03
2018-08-23T05:02:57.296Z,7.90
2018-08-23T05:05:27.162Z,7.50
2018-08-23T05:07:56.444Z,8.20
2018-08-23T05:10:25.597Z,7.70
2018-08-23T05:12:54.852Z,7.53
2018-08-23T05:15:24.054Z,7.93
2018-08-23T05:17:53.399Z,7.80
2018-08-23T05:20:22.746Z,7.57
2018-08-23T05:22:56.168Z,8.40
2018-08-23T05:25:25.803Z,8.23
2018-08-23T05:28:08.057Z,8.40
2018-08-23T05:30:37.234Z,8.07
2018-08-23T05:33:24.153Z,7.95
2018-08-23T05:35:53.860Z,8.10
2018-08-23T05:38:23.094Z,8.20
2018-08-23T05:40:59.489Z,9.23
2018-08-23T05:43:28.661Z,7.83
2018-08-23T05:45:57.924Z,8.33
2018-08-23T05:48:30.046Z,7.83
2018-08-23T05:51:06.005Z,7.87
2018-08-23T05:53:41.248Z,7.90
2018-08-23T05:56:10.606Z,8.00
2018-08-23T05:58:39.816Z,8.30
2018-08-23T06:01:09.038Z,8.53
2018-08-23T06:03:38.547Z,8.00
2018-08-23T06:06:08.293Z,8.23
2018-08-23T06:08:40.361Z,9.23
2018-08-23T06:11:10.800Z,8.00
2018-08-23T06:13:41.016Z,7.97
2018-08-23T06:16:10.205Z,7.45
2018-08-23T06:18:39.459Z,8.55
2018-08-23T06:21:08.607Z,8.48
2018-08-23T06:23:56.989Z,7.57
2018-08-23T06:26:37.282Z,8.00
2018-08-23T06:29:06.508Z,8.77
2018-08-23T06:31:46.283Z,9.13
2018-08-23T06:34:15.470Z,8.70
2018-08-23T06:36:46.119Z,9.50
2018-08-23T06:39:15.350Z,9.70
2018-08-23T06:41:45.187Z,9.10
2018-08-23T06:44:14.365Z,8.27
2018-08-23T06:46:43.614Z,9.17
2018-08-23T06:49:12.786Z,8.17
2018-08-23T06:51:41.958Z,8.30
2018-08-23T06:54:11.106Z,8.07
2018-08-23T06:56:40.281Z,8.30
2018-08-23T06:59:10.292Z,8.97
2018-08-23T07:01:47.626Z,9.10
2018-08-23T07:04:16.826Z,8.50
2018-08-23T07:06:46.069Z,9.10
2018-08-23T07:09:18.839Z,9.23
2018-08-23T07:11:48.063Z,9.00
2018-08-23T07:14:19.402Z,10.10
2018-08-23T07:16:50.454Z,8.93
2018-08-23T07:19:32.531Z,9.40
2018-08-23T07:22:02.450Z,9.03
2018-08-23T07:24:40.001Z,8.83
2018-08-23T07:27:10.462Z,9.50
2018-08-23T07:29:39.670Z,10.13
2018-08-23T07:32:13.135Z,9.57
2018-08-23T07:34:51.079Z,9.83
2018-08-23T07:37:21.142Z,9.50
2018-08-23T07:39:57.248Z,9.83
2018-08-23T07:42:28.901Z,9.93
2018-08-23T07:44:58.651Z,9.90
2018-08-23T07:47:28.171Z,11.37
2018-08-23T07:49:58.815Z,10.73
2018-08-23T07:52:29.334Z,9.97
2018-08-23T07:54:58.583Z,9.93
2018-08-23T07:57:31.334Z,9.23
2018-08-23T08:00:02.038Z,9.40
2018-08-23T08:02:31.307Z,10.03
2018-08-23T08:05:00.486Z,9.83
2018-08-23T08:07:30.898Z,9.40
2018-08-23T08:10:02.428Z,9.73
2018-08-23T08:12:38.869Z,9.38
2018-08-23T08:15:11.232Z,8.88
2018-08-23T08:17:40.240Z,9.55
2018-08-23T08:20:10.662Z,8.78
2018-08-23T08:22:39.883Z,7.87
2018-08-23T08:25:17.231Z,8.45
2018-08-23T08:27:46.874Z,12.47
2018-08-23T08:30:19.519Z,12.00
2018-08-23T08:32:55.149Z,9.85
2018-08-23T08:35:24.398Z,8.45
2018-08-23T08:37:53.709Z,8.53
2018-08-23T08:40:23.713Z,9.00
2018-08-23T08:42:53.010Z,8.93
2018-08-23T08:45:25.844Z,9.48
2018-08-23T08:48:05.943Z,8.78
2018-08-23T08:50:39.622Z,8.30
2018-08-23T08:53:08.792Z,8.85
2018-08-23T08:55:38.158Z,8.45
2018-08-23T08:58:08.610Z,8.60
2018-08-23T09:00:53.439Z,8.63
2018-08-23T09:03:23.765Z,8.18
2018-08-23T09:05:52.935Z,9.15
2018-08-23T09:08:22.093Z,8.35
2018-08-23T09:10:51.351Z,9.00
2018-08-23T09:13:20.554Z,9.33
2018-08-23T09:15:50.463Z,9.18
2018-08-23T09:18:25.292Z,8.38
2018-08-23T09:20:56.297Z,8.75
2018-08-23T09:23:25.502Z,8.08
2018-08-23T09:25:56.745Z,8.00
2018-08-23T09:28:26.108Z,8.23
2018-08-23T09:30:55.964Z,8.10
2018-08-23T09:33:28.233Z,7.45
2018-08-23T09:35:58.416Z,7.62
2018-08-23T09:38:27.578Z,7.90
2018-08-23T09:40:56.790Z,7.92
2018-08-23T09:43:25.989Z,8.55
2018-08-23T09:45:55.198Z,9.80
2018-08-23T09:48:24.422Z,8.18
2018-08-23T09:50:53.806Z,7.70
2018-08-23T09:53:24.453Z,8.10
2018-08-23T09:55:55.944Z,7.97
2018-08-23T09:58:30.510Z,8.70
2018-08-23T10:01:04.972Z,7.92
2018-08-23T10:03:39.515Z,8.58
2018-08-23T10:06:14.126Z,9.90
2018-08-23T10:08:48.731Z,9.10
2018-08-23T10:11:23.512Z,7.78
2018-08-23T10:13:58.063Z,8.35
2018-08-23T10:16:32.684Z,9.28
2018-08-23T10:19:10.066Z,8.83
2018-08-23T10:22:48.119Z,7.92
2018-08-23T10:25:43.490Z,7.67
2018-08-23T10:28:15.027Z,8.10
2018-08-23T10:30:44.538Z,7.80
2018-08-23T10:33:13.910Z,7.95
2018-08-23T10:35:48.248Z,7.87
2018-08-23T10:38:18.800Z,8.68
2018-08-23T10:40:48.986Z,7.75
2018-08-23T10:43:22.421Z,8.15
2018-08-23T10:45:51.729Z,7.42
2018-08-23T10:48:20.975Z,7.92
2018-08-23T10:50:51.030Z,7.40
2018-08-23T10:53:22.048Z,7.28
2018-08-23T10:55:51.401Z,7.90
2018-08-23T10:58:20.577Z,9.58
2018-08-23T11:00:49.749Z,9.50
2018-08-23T11:03:19.801Z,8.58
2018-08-23T11:05:49.033Z,7.53
2018-08-23T11:08:20.619Z,7.03
2018-08-23T11:10:56.011Z,7.08
2018-08-23T11:13:30.595Z,7.25
2018-08-23T11:16:05.190Z,7.87
2018-08-23T11:18:40.110Z,7.03
2018-08-23T11:21:13.052Z,7.20
2018-08-23T11:23:43.726Z,7.20
2018-08-23T11:26:23.296Z,7.12
2018-08-23T11:28:52.694Z,16.52
2018-08-23T11:31:27.347Z,6.87
2018-08-23T11:33:56.565Z,6.65
2018-08-23T11:36:25.784Z,7.53
2018-08-23T11:38:54.966Z,7.05
2018-08-23T11:41:24.135Z,7.87
2018-08-23T11:43:53.307Z,6.47
2018-08-23T11:46:22.927Z,6.75
2018-08-23T11:48:52.185Z,6.87
2018-08-23T11:51:21.294Z,7.12
2018-08-23T11:53:50.528Z,6.58
2018-08-23T11:56:19.656Z,7.50
2018-08-23T11:58:48.856Z,7.45
2018-08-23T12:01:18.102Z,6.53
2018-08-23T12:03:47.464Z,6.85
2018-08-23T12:06:20.384Z,6.80
2018-08-23T12:08:49.572Z,7.10
2018-08-23T12:11:18.786Z,6.83
2018-08-23T12:13:49.551Z,6.53
2018-08-23T12:16:19.156Z,6.95
2018-08-23T12:18:48.649Z,6.40
2018-08-23T12:21:17.987Z,6.50
2018-08-23T12:23:47.173Z,12.03
2018-08-23T12:26:16.905Z,7.40
2018-08-23T12:28:51.616Z,11.22
2018-08-23T12:31:20.792Z,9.38
2018-08-23T12:33:50.128Z,11.22
2018-08-23T12:38:30.395Z,11.00
2018-08-23T12:41:04.884Z,8.98
2018-08-23T12:43:51.217Z,10.80
2018-08-23T12:46:20.485Z,9.70
2018-08-23T12:48:53.849Z,11.38
2018-08-23T12:51:23.100Z,10.07
2018-08-23T12:53:52.405Z,9.67
2018-08-23T12:56:21.634Z,9.43
2018-08-23T12:58:50.845Z,9.40
2018-08-23T13:01:20.087Z,9.93
2018-08-23T13:03:49.427Z,9.73
2018-08-23T13:06:18.653Z,10.20
2018-08-23T13:08:47.856Z,8.97
2018-08-23T13:11:17.064Z,7.83
2018-08-23T13:13:46.230Z,8.00
2018-08-23T13:16:15.424Z,8.57
2018-08-23T13:18:44.605Z,9.20
2018-08-23T13:21:13.760Z,8.60
2018-08-23T13:23:45.829Z,8.20
2018-08-23T13:26:15.199Z,8.23
2018-08-23T13:28:44.358Z,8.70
2018-08-23T13:31:13.624Z,8.40
2018-08-23T13:33:42.805Z,7.30
2018-08-23T13:36:12.066Z,7.30
2018-08-23T13:38:41.334Z,7.27
2018-08-23T13:41:10.552Z,6.87
2018-08-23T13:43:39.917Z,6.87
2018-08-23T13:46:09.145Z,6.53
2018-08-23T13:48:38.351Z,6.50
2018-08-23T13:51:07.572Z,5.50
2018-08-23T13:53:36.781Z,6.30
2018-08-23T13:56:06.324Z,5.83
2018-08-23T13:58:35.510Z,5.53
2018-08-23T14:01:04.745Z,5.70
2018-08-23T14:03:33.983Z,5.97
2018-08-23T14:06:03.268Z,6.30
2018-08-23T14:08:32.451Z,7.30
2018-08-23T14:11:01.784Z,6.30
2018-08-23T14:13:30.930Z,6.33
2018-08-23T14:16:04.938Z,6.90
2018-08-23T14:18:35.033Z,6.65
2018-08-23T14:21:04.440Z,6.27
2018-08-23T14:23:33.702Z,6.20
2018-08-23T14:26:03.350Z,6.27
2018-08-23T14:31:28.930Z,6.25
2018-08-23T14:33:58.207Z,5.80
2018-08-23T14:36:27.425Z,5.92
2018-08-23T14:38:56.718Z,6.87
2018-08-23T14:41:25.975Z,6.20
2018-08-23T14:43:55.248Z,5.90
2018-08-23T14:46:29.862Z,6.20
2018-08-23T14:48:59.076Z,6.73
2018-08-23T14:51:28.928Z,6.40
2018-08-23T14:53:58.325Z,7.00
2018-08-23T14:56:32.763Z,7.73
2018-08-23T14:59:16.170Z,7.53
2018-08-23T15:01:45.367Z,7.10
2018-08-23T15:04:14.581Z,6.87
2018-08-23T15:06:44.392Z,10.40
2018-08-23T15:09:13.777Z,15.47
2018-08-23T15:11:42.966Z,11.37
2018-08-23T15:14:12.246Z,8.70
2018-08-23T15:16:41.425Z,6.50
2018-08-23T15:19:10.625Z,7.00
2018-08-23T15:21:39.819Z,10.43
2018-08-23T15:24:09.054Z,9.80
2018-08-23T15:26:38.604Z,11.43
2018-08-23T15:29:12.111Z,12.40
2018-08-23T15:31:43.100Z,10.07
2018-08-23T15:34:12.412Z,9.50
2018-08-23T15:36:41.822Z,7.93
2018-08-23T15:39:14.006Z,7.97
2018-08-23T15:41:43.380Z,7.97
2018-08-23T15:44:13.738Z,7.63
2018-08-23T15:46:44.799Z,7.17
2018-08-23T15:49:14.354Z,6.72
2018-08-23T15:51:44.387Z,7.17
2018-08-23T15:54:19.868Z,6.40
2018-08-23T15:56:49.243Z,6.80
2018-08-23T15:59:18.430Z,6.90
2018-08-23T16:01:47.644Z,7.33
2018-08-23T16:04:16.875Z,8.03
2018-08-23T16:06:46.106Z,7.47
2018-08-23T16:09:15.307Z,7.30
2018-08-23T16:11:44.534Z,6.57
2018-08-23T16:14:13.694Z,6.87
2018-08-23T16:16:48.295Z,6.30
2018-08-23T16:19:22.844Z,6.78
2018-08-23T16:21:56.959Z,7.20
2018-08-23T16:24:27.084Z,7.85
2018-08-23T16:27:01.581Z,6.92
2018-08-23T16:29:30.707Z,6.75
2018-08-23T16:32:00.103Z,6.23
2018-08-23T16:34:29.273Z,6.20
2018-08-23T16:36:58.623Z,6.72
2018-08-23T16:39:28.091Z,6.45
2018-08-23T16:41:57.485Z,5.67
2018-08-23T16:44:26.718Z,6.53
2018-08-23T16:46:55.965Z,6.20
2018-08-23T16:49:25.121Z,5.77
2018-08-23T16:51:54.274Z,7.47
2018-08-23T16:54:23.410Z,5.73
2018-08-23T16:56:52.677Z,6.90
2018-08-23T16:59:21.817Z,6.33
2018-08-23T17:01:50.996Z,7.53
2018-08-23T17:04:20.213Z,6.50
2018-08-23T17:06:49.390Z,6.90
2018-08-23T17:09:18.670Z,6.47
2018-08-23T17:11:47.802Z,7.07
2018-08-23T17:14:17.010Z,6.83
2018-08-23T17:16:51.724Z,6.70
2018-08-23T17:19:21.010Z,7.05
2018-08-23T17:21:50.309Z,6.35
2018-08-23T17:24:19.524Z,6.97
2018-08-23T17:26:48.650Z,6.73
2018-08-23T17:29:17.848Z,6.58
2018-08-23T17:31:47.036Z,5.78
2018-08-23T17:34:16.384Z,6.95
2018-08-23T17:36:45.706Z,6.70
2018-08-23T17:39:14.953Z,7.28
2018-08-23T17:41:44.067Z,7.08
2018-08-23T17:44:13.398Z,6.87
2018-08-23T17:46:42.609Z,6.95
2018-08-23T17:49:12.473Z,6.92
2018-08-23T17:51:42.212Z,6.60
2018-08-23T17:54:11.418Z,6.95
2018-08-23T17:56:42.689Z,7.62
2018-08-23T17:59:14.225Z,7.08
2018-08-23T18:01:43.424Z,7.00
2018-08-23T18:04:12.553Z,6.78
2018-08-23T18:06:41.780Z,7.13
2018-08-23T18:09:12.655Z,7.40
2018-08-23T18:11:41.874Z,7.10
2018-08-23T18:14:11.023Z,7.35
2018-08-23T18:16:45.578Z,7.90
2018-08-23T18:19:14.756Z,7.57
2018-08-23T18:21:44.109Z,9.10
2018-08-23T18:24:13.376Z,8.63
2018-08-23T18:26:42.811Z,8.37
2018-08-23T18:29:12.049Z,8.33
2018-08-23T18:31:41.202Z,7.43
2018-08-23T18:34:10.356Z,7.55
2018-08-23T18:36:39.635Z,9.80
2018-08-23T18:39:09.660Z,8.33
2018-08-23T18:41:39.385Z,7.93
2018-08-23T18:44:08.578Z,8.03
2018-08-23T18:46:37.740Z,7.47
2018-08-23T18:49:06.873Z,7.30
2018-08-23T18:51:36.454Z,7.87
2018-08-23T18:54:05.652Z,7.57
2018-08-23T18:56:34.795Z,7.60
2018-08-23T18:59:03.965Z,7.83
2018-08-23T19:01:33.090Z,7.72
2018-08-23T19:04:02.237Z,8.35
2018-08-23T19:06:35.242Z,8.55
2018-08-23T19:09:07.910Z,8.63
2018-08-23T19:11:37.250Z,8.20
2018-08-23T19:14:06.590Z,7.70
2018-08-23T19:16:41.126Z,7.87
2018-08-23T19:19:10.546Z,7.40
2018-08-23T19:21:39.837Z,7.72
2018-08-23T19:24:09.158Z,9.05
2018-08-23T19:26:38.444Z,8.20
2018-08-23T19:29:07.764Z,7.63
2018-08-23T19:31:37.039Z,9.00
2018-08-23T19:34:06.154Z,8.63
2018-08-23T19:36:35.562Z,8.50
2018-08-23T19:39:08.945Z,7.67
2018-08-23T19:41:38.233Z,7.67
2018-08-23T19:44:07.382Z,8.43
2018-08-23T19:46:41.905Z,8.90
2018-08-23T19:49:16.568Z,8.60
2018-08-23T19:51:45.840Z,9.67
2018-08-23T19:54:15.105Z,7.83
2018-08-23T19:56:44.228Z,7.80
2018-08-23T19:59:13.489Z,8.20
2018-08-23T20:01:42.862Z,8.13
2018-08-23T20:04:12.067Z,9.40
2018-08-23T20:06:41.250Z,9.10
2018-08-23T20:09:10.440Z,8.47
2018-08-23T20:11:39.593Z,8.60
2018-08-23T20:14:10.205Z,8.40
2018-08-23T20:16:39.354Z,8.80
2018-08-23T20:19:08.544Z,8.73
2018-08-23T20:21:37.739Z,7.73
2018-08-23T20:24:07.411Z,7.33
2018-08-23T20:26:36.693Z,7.47
2018-08-23T20:29:06.154Z,8.33
2018-08-23T20:31:35.613Z,8.90
2018-08-23T20:34:04.861Z,9.93
2018-08-23T20:36:34.119Z,9.83
2018-08-23T20:39:03.595Z,8.33
2018-08-23T20:41:32.651Z,7.90
2018-08-23T20:44:02.010Z,8.20
2018-08-23T20:46:31.181Z,7.77
2018-08-23T20:49:00.424Z,8.10
2018-08-23T20:51:29.725Z,7.60
2018-08-23T20:53:58.920Z,7.57
2018-08-23T20:56:28.960Z,7.77
2018-08-23T20:58:58.497Z,7.70
2018-08-23T21:01:28.422Z,8.03
2018-08-23T21:03:57.686Z,7.33
2018-08-23T21:06:26.847Z,8.30
2018-08-23T21:08:56.100Z,8.10
2018-08-23T21:11:25.380Z,7.07
2018-08-23T21:13:54.644Z,7.67
2018-08-23T21:16:23.814Z,7.10
2018-08-23T21:18:53.116Z,8.83
2018-08-23T21:21:22.399Z,9.43
2018-08-23T21:23:51.613Z,8.53
2018-08-23T21:26:20.850Z,8.47
2018-08-23T21:28:50.088Z,8.20
2018-08-23T21:31:19.386Z,7.03
2018-08-23T21:33:48.994Z,6.67
2018-08-23T21:36:18.151Z,7.63
2018-08-23T21:38:47.437Z,7.77
2018-08-23T21:41:16.661Z,7.73
2018-08-23T21:43:45.891Z,7.10
2018-08-23T21:46:15.100Z,7.93
2018-08-23T21:48:44.313Z,7.37
2018-08-23T21:51:13.574Z,6.77
2018-08-23T21:53:43.418Z,6.47
2018-08-23T21:56:12.676Z,7.30
2018-08-23T21:58:41.922Z,7.57
2018-08-23T22:01:11.128Z,9.40
2018-08-23T22:03:40.293Z,7.87
2018-08-23T22:06:10.382Z,7.57
2018-08-23T22:08:39.598Z,7.90
2018-08-23T22:11:08.870Z,7.33
2018-08-23T22:13:38.068Z,7.60
2018-08-23T22:16:07.272Z,7.07
2018-08-23T22:18:36.512Z,7.57
2018-08-23T22:21:05.875Z,7.20
2018-08-23T22:23:35.070Z,7.20
2018-08-23T22:26:04.350Z,7.13
2018-08-23T22:28:33.553Z,7.60
2018-08-23T22:31:02.765Z,7.53
2018-08-23T22:33:31.988Z,7.00
2018-08-23T22:36:01.245Z,7.60
2018-08-23T22:38:30.436Z,7.83
2018-08-23T22:40:59.663Z,7.40
2018-08-23T22:43:28.911Z,7.80
2018-08-23T22:46:00.525Z,7.23
2018-08-23T22:48:29.715Z,7.27
2018-08-23T22:50:58.962Z,7.07
2018-08-23T22:53:28.131Z,7.50
2018-08-23T22:55:57.395Z,6.57
2018-08-23T22:58:26.516Z,6.27
2018-08-23T23:00:55.763Z,7.53
2018-08-23T23:03:30.122Z,6.90
2018-08-23T23:05:59.330Z,7.03
2018-08-23T23:08:31.517Z,7.40
2018-08-23T23:11:00.726Z,6.77
2018-08-23T23:13:29.935Z,7.37
2018-08-23T23:15:59.182Z,7.57
2018-08-23T23:18:28.321Z,7.60
2018-08-23T23:20:57.563Z,7.03
2018-08-23T23:23:26.762Z,6.67
2018-08-23T23:25:56.124Z,6.63
2018-08-23T23:28:25.346Z,6.80
2018-08-23T23:30:54.474Z,7.03
2018-08-23T23:33:24.043Z,6.83
2018-08-23T23:35:53.235Z,6.30
2018-08-23T23:38:22.470Z,6.50
2018-08-23T23:40:51.722Z,6.87
2018-08-23T23:43:20.870Z,6.87
2018-08-23T23:45:50.135Z,6.87
2018-08-23T23:48:19.309Z,7.03
2018-08-23T23:50:48.507Z,7.43
2018-08-23T23:53:17.675Z,6.20
2018-08-23T23:55:46.894Z,6.93
2018-08-23T23:58:16.023Z,6.60
